Time;durP1;ratioP1;P1;durP2;ratioP2;P2;SDS_P1;SDS_P2;PMS_P1;PMS_P2;Temp;Humidity;BMP_temperature;BMP_pressure;BME280_temperature;BME280_humidity;BME280_pressure;Samples;Min_cycle;Max_cycle;Signal;HPM_P1;HPM_P2
2021/02/24 00:03:38;;;;;;;0.50;0.50;;;;;;;11.21;57.78;98618.25;299395;228;63018;-55
2021/02/24 00:08:41;;;;;;;0.50;0.50;;;;;;;11.20;57.36;98622.03;299395;267;63005;-54
2021/02/24 00:13:44;;;;;;;0.60;0.60;;;;;;;11.24;57.06;98615.03;299395;213;63009;-55
2021/02/24 00:18:45;;;;;;;0.60;0.60;;;;;;;11.16;57.10;98614.66;299395;253;63004;-54
2021/02/24 00:23:46;;;;;;;0.50;0.50;;;;;;;11.16;56.92;98626.34;299395;215;63009;-55
2021/02/24 00:28:47;;;;;;;0.50;0.50;;;;;;;11.19;56.16;98625.00;299395;261;63005;-55
2021/02/24 00:33:49;;;;;;;0.50;0.50;;;;;;;11.09;56.90;98620.28;299395;215;63009;-55
2021/02/24 00:38:50;;;;;;;0.50;0.50;;;;;;;10.99;57.38;98622.91;299395;305;63005;-55
2021/02/24 00:43:51;;;;;;;0.50;0.50;;;;;;;10.91;57.42;98617.91;299395;214;63009;-55
2021/02/24 00:48:52;;;;;;;0.50;0.50;;;;;;;10.81;57.67;98624.00;299395;197;63004;-55
2021/02/24 00:53:53;;;;;;;0.50;0.50;;;;;;;10.77;57.47;98624.75;299395;255;63009;-54
2021/02/24 00:58:54;;;;;;;0.52;0.52;;;;;;;10.75;57.63;98623.13;299395;203;63005;-54
2021/02/24 01:03:55;;;;;;;0.50;0.50;;;;;;;10.67;57.86;98620.03;299395;249;63009;-55
2021/02/24 01:08:56;;;;;;;0.50;0.50;;;;;;;10.57;58.29;98607.16;299395;216;63005;-55
2021/02/24 01:13:57;;;;;;;0.50;0.50;;;;;;;10.51;58.31;98613.56;299395;273;63009;-54
2021/02/24 01:18:58;;;;;;;0.50;0.50;;;;;;;10.41;58.42;98613.44;299395;250;63004;-56
2021/02/24 01:23:59;;;;;;;0.50;0.50;;;;;;;10.35;58.77;98615.28;299395;196;63012;-54
2021/02/24 01:29:00;;;;;;;0.50;0.50;;;;;;;10.37;58.62;98609.59;299395;216;63005;-54
2021/02/24 01:34:01;;;;;;;0.50;0.50;;;;;;;10.38;58.83;98608.53;299395;221;63019;-55
2021/02/24 01:39:02;;;;;;;0.50;0.50;;;;;;;10.47;57.88;98598.03;299395;212;63005;-55
2021/02/24 01:44:09;;;;;;;0.60;0.60;;;;;;;10.40;58.24;98595.50;299395;286;63009;-56
2021/02/24 01:49:10;;;;;;;0.60;0.60;;;;;;;10.47;58.09;98590.72;299395;207;63004;-55
2021/02/24 01:54:11;;;;;;;0.50;0.50;;;;;;;10.45;58.45;98590.16;299395;212;63009;-53
2021/02/24 01:59:13;;;;;;;0.50;0.50;;;;;;;10.43;57.61;98589.56;299395;205;63005;-54
2021/02/24 02:04:14;;;;;;;0.50;0.50;;;;;;;10.42;57.78;98590.66;299395;213;63008;-53
2021/02/24 02:09:15;;;;;;;0.50;0.50;;;;;;;10.46;57.18;98586.38;299395;214;63004;-56
2021/02/24 02:14:16;;;;;;;0.50;0.50;;;;;;;10.49;57.11;98587.75;299394;229;64009;-55
2021/02/24 02:19:16;;;;;;;0.50;0.50;;;;;;;10.44;57.36;98580.38;299395;218;63004;-53
2021/02/24 02:24:17;;;;;;;0.50;0.50;;;;;;;10.39;57.39;98589.28;299395;216;63009;-53
2021/02/24 02:29:18;;;;;;;0.50;0.50;;;;;;;10.34;57.42;98580.25;299395;254;63005;-53
2021/02/24 02:34:20;;;;;;;0.50;0.50;;;;;;;10.30;57.45;98584.53;299395;232;63009;-54
2021/02/24 02:39:20;;;;;;;0.50;0.50;;;;;;;10.18;57.94;98581.06;299395;307;63011;-53
2021/02/24 02:44:21;;;;;;;0.50;0.50;;;;;;;10.12;57.66;98584.75;299395;237;63019;-53
2021/02/24 02:49:22;;;;;;;0.50;0.50;;;;;;;10.11;57.40;98581.22;299395;280;63004;-53
2021/02/24 02:54:25;;;;;;;0.50;0.50;;;;;;;10.08;56.78;98577.09;299395;207;63009;-55
2021/02/24 02:59:28;;;;;;;0.50;0.50;;;;;;;10.09;56.46;98578.75;299395;197;63005;-54
2021/02/24 03:04:31;;;;;;;0.60;0.60;;;;;;;10.12;56.27;98573.91;299439;287;63009;-53
2021/02/24 03:09:35;;;;;;;0.50;0.50;;;;;;;10.18;55.07;98570.19;299395;229;63004;-52
2021/02/24 03:14:36;;;;;;;0.50;0.50;;;;;;;10.24;55.10;98569.25;299417;216;63009;-54
2021/02/24 03:19:37;;;;;;;0.50;0.50;;;;;;;10.24;54.48;98574.66;299395;215;63000;-54
2021/02/24 03:24:38;;;;;;;0.50;0.50;;;;;;;10.20;54.63;98578.94;299395;214;63019;-54
2021/02/24 03:29:39;;;;;;;0.50;0.50;;;;;;;10.19;53.89;98574.56;299395;223;63005;-54
2021/02/24 03:34:44;;;;;;;0.50;0.50;;;;;;;10.16;54.08;98570.44;299395;215;63008;-54
2021/02/24 03:39:45;;;;;;;0.52;0.52;;;;;;;10.20;53.41;98568.91;299416;206;64004;-56
2021/02/24 03:44:46;;;;;;;0.50;0.50;;;;;;;10.16;53.41;98567.75;299395;249;63021;-54
2021/02/24 03:49:47;;;;;;;0.50;0.50;;;;;;;10.13;53.65;98570.13;299395;227;63004;-54
2021/02/24 03:54:48;;;;;;;0.50;0.50;;;;;;;10.11;53.56;98572.25;299395;248;63009;-54
2021/02/24 03:59:48;;;;;;;0.50;0.50;;;;;;;10.01;53.78;98571.06;299395;289;63005;-54
2021/02/24 04:04:50;;;;;;;0.50;0.50;;;;;;;9.99;53.78;98567.78;299395;217;63005;-54
2021/02/24 04:09:50;;;;;;;0.55;0.55;;;;;;;10.05;53.14;98565.94;299395;204;63004;-53
2021/02/24 04:14:51;;;;;;;0.50;0.50;;;;;;;9.96;53.93;98562.84;299395;224;63009;-55
2021/02/24 04:19:56;;;;;;;0.50;0.50;;;;;;;9.81;54.62;98562.59;299395;205;63005;-53
2021/02/24 04:24:57;;;;;;;0.50;0.50;;;;;;;9.74;54.72;98568.19;299417;214;63009;-53
2021/02/24 04:30:01;;;;;;;0.50;0.50;;;;;;;9.73;54.83;98580.09;299395;223;63005;-54
2021/02/24 04:35:02;;;;;;;0.60;0.60;;;;;;;9.72;54.58;98564.06;299417;227;63009;-53
2021/02/24 04:40:05;;;;;;;0.50;0.50;;;;;;;9.67;54.79;98564.84;299373;297;63004;-53
2021/02/24 04:45:08;;;;;;;0.50;0.50;;;;;;;9.64;55.09;98564.50;299394;218;64009;-53
2021/02/24 04:50:10;;;;;;;0.50;0.50;;;;;;;9.74;54.45;98564.66;299395;335;63005;-54
2021/02/24 04:55:13;;;;;;;0.50;0.50;;;;;;;9.79;54.89;98556.59;299395;222;63009;-54
2021/02/24 05:00:15;;;;;;;0.55;0.55;;;;;;;9.71;55.59;98565.12;299395;229;63011;-54
2021/02/24 05:05:16;;;;;;;0.60;0.60;;;;;;;9.62;55.70;98561.22;299395;307;63009;-53
2021/02/24 05:10:19;;;;;;;0.50;0.50;;;;;;;9.65;55.40;98564.25;299395;226;63004;-54
2021/02/24 05:15:20;;;;;;;0.50;0.50;;;;;;;9.62;56.04;98558.50;299395;216;63009;-53
2021/02/24 05:20:22;;;;;;;0.50;0.50;;;;;;;9.42;57.26;98558.97;299395;257;63005;-52
2021/02/24 05:25:24;;;;;;;0.50;0.50;;;;;;;9.24;57.93;98560.03;299395;299;63009;-57
2021/02/24 05:30:28;;;;;;;0.50;0.50;;;;;;;9.15;58.30;98561.47;299395;224;63005;-54
2021/02/24 05:35:29;;;;;;;0.60;0.60;;;;;;;9.03;58.90;98558.81;299417;341;63009;-53
2021/02/24 05:40:33;;;;;;;0.50;0.50;;;;;;;9.03;58.51;98558.81;299395;202;63004;-56
2021/02/24 05:45:37;;;;;;;0.60;0.60;;;;;;;9.03;58.46;98558.81;299417;204;63025;-53
2021/02/24 05:50:39;;;;;;;0.50;0.50;;;;;;;8.99;58.26;98554.16;299417;253;63005;-56
2021/02/24 05:55:43;;;;;;;0.50;0.50;;;;;;;9.13;57.38;98551.94;299395;208;63008;-53
2021/02/24 06:00:44;;;;;;;0.70;0.70;;;;;;;9.08;57.82;98552.66;299418;256;63004;-54
2021/02/24 06:05:45;;;;;;;0.60;0.60;;;;;;;9.06;57.87;98557.50;299396;248;63005;-55
2021/02/24 06:10:46;;;;;;;0.60;0.60;;;;;;;9.08;57.61;98560.78;299396;203;63005;-54
2021/02/24 06:15:47;;;;;;;0.60;0.60;;;;;;;9.14;56.98;98554.41;299396;256;63009;-53
2021/02/24 06:20:48;;;;;;;0.50;0.50;;;;;;;9.18;56.95;98558.28;299396;206;63005;-56
2021/02/24 06:25:55;;;;;;;0.50;0.50;;;;;;;9.16;57.42;98563.13;299396;330;63008;-55
2021/02/24 06:30:56;;;;;;;0.60;0.60;;;;;;;9.12;57.59;98574.66;299396;207;63004;-55
2021/02/24 06:35:57;;;;;;;0.60;0.60;;;;;;;9.14;57.00;98565.25;299396;258;63009;-54
2021/02/24 06:41:11;;;;;;;0.60;0.60;;;;;;;9.16;57.05;98573.94;299396;200;63005;-55
2021/02/24 06:46:12;;;;;;;0.60;0.60;;;;;;;9.13;57.27;98574.44;299419;205;63009;-55
2021/02/24 06:51:14;;;;;;;0.60;0.60;;;;;;;9.15;57.05;98572.31;299375;196;63996;-54
2021/02/24 06:57:04;;;;;;;0.60;0.60;;;;;;;9.13;57.70;98579.84;299396;205;63009;-54
2021/02/24 07:02:52;;;;;;;0.60;0.60;;;;;;;9.06;58.28;98582.69;299396;215;63004;-55
2021/02/24 07:08:28;;;;;;;0.50;0.50;;;;;;;9.02;58.86;98586.13;299396;223;63016;-53
2021/02/24 07:13:32;;;;;;;0.60;0.60;;;;;;;8.97;58.67;98591.47;299440;208;63005;-53
2021/02/24 07:18:33;;;;;;;;;;;;;;;8.99;58.83;98590.16;299996;982;6005;-53
2021/02/24 07:23:35;;;;;;;0.60;0.60;;;;;;;8.97;58.73;98591.47;299401;330;63009;-53
2021/02/24 07:28:37;;;;;;;0.60;0.60;;;;;;;8.99;58.83;98589.34;299396;204;63005;-54
2021/02/24 07:33:42;;;;;;;0.60;0.60;;;;;;;9.03;58.69;98593.19;299396;282;63009;-54
2021/02/24 07:38:58;;;;;;;0.60;0.60;;;;;;;9.13;58.72;98590.69;299397;267;63004;-53
2021/02/24 07:44:18;;;;;;;0.60;0.60;;;;;;;9.25;58.04;98591.47;299396;208;63009;-53
2021/02/24 07:49:24;;;;;;;0.60;0.60;;;;;;;9.38;57.58;98587.59;299395;224;63005;-54
2021/02/24 07:54:31;;;;;;;0.60;0.60;;;;;;;9.51;57.14;98589.19;299393;253;64009;-55
2021/02/24 07:59:38;;;;;;;0.60;0.60;;;;;;;9.72;56.86;98588.47;299395;220;63004;-54
2021/02/24 08:04:46;;;;;;;0.50;0.50;;;;;;;9.92;56.38;98583.37;299395;213;63009;-54
2021/02/24 08:09:50;;;;;;;0.57;0.57;;;;;;;10.15;55.74;98586.97;299395;221;63011;-55
2021/02/24 08:14:58;;;;;;;0.60;0.60;;;;;;;10.33;55.65;98584.03;299439;237;125022;-54
2021/02/24 08:19:59;;;;;;;0.50;0.50;;;;;;;10.52;54.99;98569.09;299395;223;63005;-55
2021/02/24 08:25:00;;;;;;;0.60;0.60;;;;;;;10.71;54.43;98565.00;299395;231;63009;-54
2021/02/24 08:30:00;;;;;;;0.50;0.50;;;;;;;10.91;54.71;98569.00;299395;219;63003;-54
2021/02/24 08:35:01;;;;;;;0.50;0.50;;;;;;;11.07;54.17;98559.97;299395;213;63005;-55
2021/02/24 08:40:17;;;;;;;0.50;0.50;;;;;;;11.27;53.49;98562.88;299395;239;63010;-55
2021/02/24 08:45:26;;;;;;;0.50;0.50;;;;;;;11.48;53.11;98557.62;299417;212;63009;-55
2021/02/24 08:50:39;;;;;;;0.50;0.50;;;;;;;11.70;52.21;98555.69;299395;222;63005;-56
2021/02/24 08:55:44;;;;;;;0.50;0.50;;;;;;;11.92;52.02;98548.25;299395;224;63009;-57
2021/02/24 09:00:52;;;;;;;0.50;0.50;;;;;;;12.14;51.64;98550.84;299395;218;63004;-54
2021/02/24 09:05:56;;;;;;;0.50;0.50;;;;;;;12.33;50.91;98548.53;299395;202;63009;-55
2021/02/24 09:10:58;;;;;;;0.50;0.50;;;;;;;12.49;50.57;98535.78;299395;199;63005;-55
2021/02/24 09:16:04;;;;;;;0.50;0.50;;;;;;;12.66;49.67;98531.78;299395;284;63019;-55
2021/02/24 09:21:09;;;;;;;0.50;0.50;;;;;;;12.70;50.06;98532.91;299395;220;63005;-54
2021/02/24 09:26:14;;;;;;;0.50;0.50;;;;;;;12.87;49.16;98527.22;299417;247;63009;-54
2021/02/24 09:31:29;;;;;;;0.50;0.50;;;;;;;13.00;48.98;98520.47;299395;236;63004;-57
2021/02/24 09:36:35;;;;;;;0.50;0.50;;;;;;;13.05;49.18;98509.56;299395;210;63022;-55
2021/02/24 09:41:38;;;;;;;0.50;0.50;;;;;;;13.05;48.22;98521.28;299395;213;63005;-59
2021/02/24 09:46:49;;;;;;;0.50;0.50;;;;;;;13.17;48.43;98512.88;299395;254;63008;-55
2021/02/24 09:51:50;;;;;;;0.50;0.50;;;;;;;13.32;48.02;98506.66;299395;277;63004;-54
2021/02/24 09:56:56;;;;;;;0.50;0.50;;;;;;;13.44;48.38;98506.41;299395;270;63009;-55
2021/02/24 10:01:59;;;;;;;0.50;0.50;;;;;;;13.57;48.30;98505.84;299395;251;63004;-55
2021/02/24 10:07:01;;;;;;;0.50;0.50;;;;;;;13.66;48.36;98510.47;299395;253;63009;-55
2021/02/24 10:12:03;;;;;;;0.50;0.50;;;;;;;13.80;48.41;98502.56;299395;239;63005;-55
2021/02/24 10:17:04;;;;;;;0.50;0.50;;;;;;;13.93;47.49;98495.72;299395;245;63008;-55
2021/02/24 10:22:06;;;;;;;0.50;0.50;;;;;;;14.03;47.86;98491.06;299395;278;63004;-56
2021/02/24 10:27:09;;;;;;;0.50;0.50;;;;;;;14.16;47.49;98491.59;299395;269;63009;-54
2021/02/24 10:32:10;;;;;;;0.50;0.50;;;;;;;14.36;47.25;98477.88;299395;255;63005;-55
2021/02/24 10:37:11;;;;;;;0.50;0.50;;;;;;;14.62;46.61;98484.87;299395;209;63009;-57
2021/02/24 10:42:12;;;;;;;0.50;0.50;;;;;;;14.80;45.64;98474.44;299395;241;63010;-57
2021/02/24 10:47:13;;;;;;;0.50;0.50;;;;;;;14.95;44.92;98471.59;299395;292;63017;-55
2021/02/24 10:52:14;;;;;;;0.50;0.50;;;;;;;14.99;44.95;98464.47;299395;249;63004;-56
2021/02/24 10:57:17;;;;;;;0.50;0.50;;;;;;;15.08;45.42;98468.22;299395;316;63009;-56
2021/02/24 11:02:19;;;;;;;0.50;0.50;;;;;;;15.11;44.40;98451.25;299395;205;63005;-54
2021/02/24 11:07:20;;;;;;;0.50;0.50;;;;;;;15.16;45.20;98448.50;299395;247;63009;-57
2021/02/24 11:12:21;;;;;;;0.50;0.50;;;;;;;15.28;46.83;98451.66;299395;234;63005;-57
2021/02/24 11:17:23;;;;;;;0.50;0.50;;;;;;;15.41;46.64;98434.62;299395;268;63009;-55
2021/02/24 11:22:24;;;;;;;0.50;0.50;;;;;;;15.51;46.50;98432.91;299395;218;63004;-54
2021/02/24 11:27:28;;;;;;;0.50;0.50;;;;;;;15.64;45.38;98422.13;299395;248;63005;-55
2021/02/24 11:32:29;;;;;;;0.50;0.50;;;;;;;15.72;46.79;98424.25;299417;240;63005;-55
2021/02/24 11:37:30;;;;;;;0.40;0.40;;;;;;;15.85;45.83;98420.00;299395;208;63004;-56
2021/02/24 11:42:31;;;;;;;0.50;0.50;;;;;;;15.95;46.19;98414.41;299395;243;63005;-55
2021/02/24 11:47:32;;;;;;;0.50;0.50;;;;;;;16.05;46.18;98406.09;299395;241;63009;-57
2021/02/24 11:52:32;;;;;;;0.50;0.50;;;;;;;16.07;44.94;98392.91;299395;208;63004;-56
2021/02/24 11:57:35;;;;;;;0.50;0.50;;;;;;;16.16;46.29;98400.50;299395;263;63009;-57
2021/02/24 12:02:36;;;;;;;0.50;0.50;;;;;;;16.25;45.76;98382.31;299395;199;63005;-54
2021/02/24 12:07:38;;;;;;;0.50;0.50;;;;;;;16.31;45.79;98375.66;299395;243;63008;-56
2021/02/24 12:12:38;;;;;;;0.50;0.50;;;;;;;16.40;46.22;98365.66;299395;213;63004;-55
2021/02/24 12:17:39;;;;;;;0.50;0.50;;;;;;;16.56;45.72;98361.63;299395;230;63009;-56
2021/02/24 12:22:40;;;;;;;0.50;0.50;;;;;;;16.59;45.51;98361.03;299395;223;63010;-56
2021/02/24 12:27:42;;;;;;;0.50;0.50;;;;;;;16.61;46.48;98355.25;299395;220;63009;-57
2021/02/24 12:32:45;;;;;;;0.50;0.50;;;;;;;16.69;45.16;98355.41;299395;243;63005;-55
2021/02/24 12:37:46;;;;;;;0.50;0.50;;;;;;;16.78;46.10;98341.84;299395;222;63008;-55
2021/02/24 12:42:47;;;;;;;0.50;0.50;;;;;;;16.88;45.14;98335.41;299395;222;63004;-54
2021/02/24 12:47:48;;;;;;;0.50;0.50;;;;;;;17.00;44.48;98325.59;299395;228;63009;-53
2021/02/24 12:52:49;;;;;;;0.50;0.50;;;;;;;17.01;44.92;98318.16;299395;215;63004;-56
2021/02/24 12:57:50;;;;;;;0.40;0.40;;;;;;;17.20;42.99;98310.72;299395;199;63009;-54
2021/02/24 13:02:52;;;;;;;0.40;0.40;;;;;;;17.22;42.60;98305.75;299395;233;63005;-56
2021/02/24 13:07:53;;;;;;;0.50;0.50;;;;;;;17.25;42.66;98305.16;299395;205;63008;-56
2021/02/24 13:12:54;;;;;;;39.40;12.10;;;;;;;17.37;42.69;98310.94;299385;218;65004;-55
2021/02/24 13:17:55;;;;;;;0.50;0.50;;;;;;;17.45;41.80;98295.72;299395;202;63009;-56
2021/02/24 13:22:56;;;;;;;0.50;0.50;;;;;;;17.53;41.13;98285.97;299395;205;63004;-55
2021/02/24 13:27:57;;;;;;;0.50;0.50;;;;;;;17.65;40.47;98278.09;299395;270;63009;-56
2021/02/24 13:32:58;;;;;;;0.50;0.50;;;;;;;17.68;39.70;98283.75;299395;251;63005;-55
2021/02/24 13:38:00;;;;;;;0.50;0.50;;;;;;;17.77;40.91;98283.06;299395;240;63009;-53
2021/02/24 13:43:02;;;;;;;0.40;0.40;;;;;;;17.84;38.18;98259.56;299395;204;63004;-56
2021/02/24 13:48:04;;;;;;;0.50;0.50;;;;;;;17.96;38.29;98262.63;299395;208;63009;-55
2021/02/24 13:53:05;;;;;;;0.50;0.50;;;;;;;17.97;38.60;98252.44;299395;211;63005;-55
2021/02/24 13:58:06;;;;;;;0.50;0.50;;;;;;;17.92;38.27;98245.12;299395;257;63009;-53
2021/02/24 14:03:07;;;;;;;0.50;0.50;;;;;;;18.00;37.99;98247.16;299395;216;63005;-57
2021/02/24 14:08:08;;;;;;;0.40;0.40;;;;;;;18.03;38.77;98246.50;299395;272;63009;-58
2021/02/24 14:13:09;;;;;;;0.40;0.40;;;;;;;18.04;37.85;98239.06;299395;265;63004;-55
2021/02/24 14:18:11;;;;;;;0.40;0.40;;;;;;;17.98;38.82;98243.09;299395;202;63009;-55
2021/02/24 14:23:12;;;;;;;0.40;0.40;;;;;;;18.01;40.68;98245.22;299395;196;63005;-55
2021/02/24 14:28:14;;;;;;;0.40;0.40;;;;;;;17.99;40.11;98233.72;299395;213;63009;-56
2021/02/24 14:33:15;;;;;;;0.40;0.40;;;;;;;17.97;40.37;98230.47;299395;261;63005;-55
2021/02/24 14:38:16;;;;;;;0.40;0.40;;;;;;;18.00;41.35;98230.66;299395;204;63009;-55
2021/02/24 14:43:21;;;;;;;0.40;0.40;;;;;;;18.08;39.39;98224.41;299395;224;63008;-55
2021/02/24 14:48:22;;;;;;;0.40;0.40;;;;;;;18.02;39.65;98222.91;299395;224;63009;-55
2021/02/24 14:53:23;;;;;;;0.40;0.40;;;;;;;18.17;39.44;98218.19;299395;224;63005;-55
2021/02/24 14:58:23;;;;;;;0.40;0.40;;;;;;;18.05;39.48;98222.28;299395;350;63009;-55
2021/02/24 15:03:24;;;;;;;0.40;0.40;;;;;;;18.02;39.40;98217.41;299395;202;63005;-57
2021/02/24 15:08:25;;;;;;;0.40;0.40;;;;;;;18.01;39.57;98221.31;299395;371;63009;-58
2021/02/24 15:13:27;;;;;;;0.40;0.40;;;;;;;17.88;40.46;98222.12;299395;205;63008;-56
2021/02/24 15:18:28;;;;;;;0.50;0.50;;;;;;;17.78;41.85;98227.84;299395;375;63009;-56
2021/02/24 15:23:29;;;;;;;0.40;0.40;;;;;;;17.88;40.61;98222.12;299395;210;63005;-61
2021/02/24 15:28:30;;;;;;;0.40;0.40;;;;;;;17.80;41.71;98228.34;299395;224;63009;-62
2021/02/24 15:33:31;;;;;;;0.50;0.50;;;;;;;17.62;41.81;98223.78;299395;216;63005;-60
2021/02/24 15:38:32;;;;;;;0.40;0.40;;;;;;;17.48;42.11;98223.78;299395;227;63009;-60
2021/02/24 15:43:33;;;;;;;0.40;0.40;;;;;;;17.36;42.18;98221.53;299395;208;63004;-60
2021/02/24 15:48:34;;;;;;;0.40;0.40;;;;;;;17.28;43.35;98224.19;299395;214;63009;-60
2021/02/24 15:53:35;;;;;;;0.40;0.40;;;;;;;17.10;44.08;98223.13;299395;213;63005;-60
2021/02/24 15:58:36;;;;;;;0.50;0.50;;;;;;;16.96;44.46;98225.06;299395;198;63009;-61
2021/02/24 16:03:37;;;;;;;0.40;0.40;;;;;;;16.90;44.58;98229.00;299395;243;63005;-60
2021/02/24 16:08:38;;;;;;;0.50;0.50;;;;;;;16.70;45.49;98224.66;299395;211;63009;-60
2021/02/24 16:13:38;;;;;;;0.45;0.45;;;;;;;16.42;47.18;98230.03;299395;215;63009;-60
2021/02/24 16:18:39;;;;;;;0.40;0.40;;;;;;;16.13;47.84;98231.31;299395;216;63009;-61
2021/02/24 16:23:40;;;;;;;0.40;0.40;;;;;;;15.84;48.18;98226.78;299395;288;63005;-61
2021/02/24 16:28:41;;;;;;;0.40;0.40;;;;;;;15.58;48.98;98240.00;299395;213;63009;-60
2021/02/24 16:33:42;;;;;;;0.50;0.50;;;;;;;15.36;49.84;98235.00;299395;266;63004;-60
2021/02/24 16:38:43;;;;;;;0.50;0.50;;;;;;;15.17;50.25;98236.06;299395;296;63005;-56
2021/02/24 16:43:44;;;;;;;0.50;0.50;;;;;;;14.97;51.04;98253.47;299395;233;63004;-56
2021/02/24 16:48:45;;;;;;;0.50;0.50;;;;;;;14.74;51.46;98250.41;299395;238;63009;-60
2021/02/24 16:53:46;;;;;;;0.50;0.50;;;;;;;14.57;52.76;98252.72;299395;198;63005;-61
2021/02/24 16:58:48;;;;;;;0.50;0.50;;;;;;;14.38;53.02;98247.13;299395;219;63008;-58
2021/02/24 17:03:48;;;;;;;0.50;0.50;;;;;;;14.26;53.31;98248.56;299395;251;63004;-59
2021/02/24 17:08:49;;;;;;;0.50;0.50;;;;;;;14.17;52.58;98247.53;299395;229;63009;-59
2021/02/24 17:13:50;;;;;;;0.50;0.50;;;;;;;14.09;52.45;98244.31;299395;202;63004;-60
2021/02/24 17:18:51;;;;;;;0.45;0.45;;;;;;;14.04;51.76;98236.16;299395;245;63009;-58
2021/02/24 17:23:52;;;;;;;0.50;0.50;;;;;;;13.96;51.27;98239.47;299395;232;63005;-56
2021/02/24 17:28:53;;;;;;;0.50;0.50;;;;;;;13.88;50.48;98231.88;299395;392;63008;-56
2021/02/24 17:33:54;;;;;;;0.50;0.50;;;;;;;13.89;49.23;98230.78;299395;196;63004;-56
2021/02/24 17:38:56;;;;;;;0.50;0.50;;;;;;;13.90;48.83;98235.13;299395;309;63009;-56
2021/02/24 17:43:57;;;;;;;0.50;0.50;;;;;;;14.17;46.70;98222.97;299395;255;63004;-56
2021/02/24 17:48:58;;;;;;;0.50;0.50;;;;;;;14.51;44.37;98212.09;299395;270;63022;-55
2021/02/24 17:53:59;;;;;;;0.50;0.50;;;;;;;14.73;44.00;98209.72;299395;551;63005;-56
2021/02/24 17:59:02;;;;;;;0.50;0.50;;;;;;;14.69;44.53;98225.84;299395;266;63020;-57
2021/02/24 18:04:05;;;;;;;0.50;0.50;;;;;;;14.56;45.12;98215.59;299395;202;63004;-56
2021/02/24 18:09:09;;;;;;;0.50;0.50;;;;;;;14.59;44.21;98215.00;299395;210;63009;-56
2021/02/24 18:14:11;;;;;;;0.50;0.50;;;;;;;14.46;45.11;98226.63;299417;420;63005;-56
2021/02/24 18:19:11;;;;;;;0.50;0.50;;;;;;;14.45;44.64;98214.06;299395;196;63009;-57
2021/02/24 18:24:12;;;;;;;0.50;0.50;;;;;;;14.31;45.74;98223.94;299395;242;63005;-56
2021/02/24 18:29:13;;;;;;;0.50;0.50;;;;;;;14.19;45.95;98218.06;299395;271;63009;-58
2021/02/24 18:34:15;;;;;;;0.50;0.50;;;;;;;14.14;45.92;98207.16;299396;337;63008;-56
2021/02/24 18:39:16;;;;;;;0.50;0.50;;;;;;;14.13;45.83;98205.53;299395;196;64009;-56
2021/02/24 18:44:17;;;;;;;0.50;0.50;;;;;;;14.03;46.42;98207.22;299396;238;63005;-55
2021/02/24 18:49:18;;;;;;;0.50;0.50;;;;;;;14.02;46.02;98197.41;299396;353;63013;-54
2021/02/24 18:54:19;;;;;;;0.50;0.50;;;;;;;13.93;46.57;98212.75;299396;323;63005;-56
2021/02/24 18:59:22;;;;;;;0.50;0.50;;;;;;;13.72;47.59;98205.78;299396;276;63009;-54
2021/02/24 19:04:23;;;;;;;0.50;0.50;;;;;;;13.52;48.02;98205.88;299396;360;63004;-54
2021/02/24 19:09:24;;;;;;;0.50;0.50;;;;;;;13.34;48.60;98210.87;299396;210;63009;-57
2021/02/24 19:14:26;;;;;;;0.50;0.50;;;;;;;13.14;49.27;98210.09;299396;200;63005;-54
2021/02/24 19:19:27;;;;;;;0.50;0.50;;;;;;;13.09;49.54;98210.94;299397;215;63009;-55
2021/02/24 19:24:29;;;;;;;0.50;0.50;;;;;;;12.99;49.75;98213.66;299397;202;63005;-57
2021/02/24 19:29:30;;;;;;;0.50;0.50;;;;;;;12.94;50.04;98210.94;299396;227;63009;-59
2021/02/24 19:34:33;;;;;;;0.50;0.50;;;;;;;12.88;50.02;98210.13;299396;210;63004;-55
2021/02/24 19:39:36;;;;;;;0.50;0.50;;;;;;;12.93;50.01;98204.69;299396;241;63009;-55
2021/02/24 19:44:36;;;;;;;0.50;0.50;;;;;;;12.99;49.56;98202.78;299396;202;63005;-55
2021/02/24 19:49:38;;;;;;;0.50;0.50;;;;;;;13.03;49.81;98201.13;299396;217;63008;-55
2021/02/24 19:54:39;;;;;;;0.50;0.50;;;;;;;13.01;49.52;98193.22;299396;213;63004;-55
2021/02/24 19:59:40;;;;;;;0.50;0.50;;;;;;;13.02;50.06;98196.78;299396;219;63009;-56
2021/02/24 20:04:41;;;;;;;0.50;0.50;;;;;;;13.01;49.93;98189.69;299396;250;63004;-56
2021/02/24 20:09:43;;;;;;;0.50;0.50;;;;;;;13.14;49.17;98186.37;299396;212;63009;-55
2021/02/24 20:14:47;;;;;;;0.50;0.50;;;;;;;13.08;49.22;98193.75;299397;289;63005;-57
2021/02/24 20:19:47;;;;;;;0.50;0.50;;;;;;;13.01;49.68;98195.97;299417;202;63008;-56
2021/02/24 20:24:48;;;;;;;0.50;0.50;;;;;;;13.01;49.77;98184.25;299396;229;63004;-56
2021/02/24 20:29:49;;;;;;;0.50;0.50;;;;;;;12.91;49.63;98198.69;299395;235;63009;-56
2021/02/24 20:34:51;;;;;;;0.50;0.50;;;;;;;12.91;49.74;98195.16;299395;264;63004;-55
2021/02/24 20:39:54;;;;;;;0.50;0.50;;;;;;;12.83;49.83;98184.81;299395;208;63009;-57
2021/02/24 20:44:54;;;;;;;0.47;0.47;;;;;;;12.74;50.64;98193.56;299395;224;63005;-55
2021/02/24 20:50:00;;;;;;;0.50;0.50;;;;;;;12.63;51.04;98189.22;299395;235;63008;-56
2021/02/24 20:55:02;;;;;;;0.50;0.50;;;;;;;12.56;50.94;98193.31;299395;202;63004;-55
2021/02/24 21:00:08;;;;;;;0.50;0.50;;;;;;;12.51;51.35;98183.22;299395;299;63009;-55
2021/02/24 21:05:10;;;;;;;0.50;0.50;;;;;;;12.49;51.03;98185.41;299395;196;63005;-56
2021/02/24 21:10:12;;;;;;;0.50;0.50;;;;;;;12.48;51.21;98182.97;299395;237;63009;-55
2021/02/24 21:15:14;;;;;;;0.50;0.50;;;;;;;12.41;51.22;98180.53;299395;199;63005;-55
2021/02/24 21:20:15;;;;;;;0.50;0.50;;;;;;;12.27;51.87;98185.69;299395;259;63009;-55
2021/02/24 21:25:16;;;;;;;0.50;0.50;;;;;;;12.20;51.72;98181.63;299395;236;63014;-55
2021/02/24 21:30:21;;;;;;;0.50;0.50;;;;;;;12.12;52.00;98182.19;299395;271;63009;-54
2021/02/24 21:35:22;;;;;;;0.50;0.50;;;;;;;12.00;52.79;98174.28;299395;209;63012;-55
2021/02/24 21:40:24;;;;;;;0.50;0.50;;;;;;;11.92;52.94;98172.91;299395;212;63009;-54
2021/02/24 21:45:25;;;;;;;0.50;0.50;;;;;;;11.80;53.31;98169.59;299395;229;63011;-55
2021/02/24 21:50:26;;;;;;;0.50;0.50;;;;;;;11.78;53.85;98171.00;299395;208;63021;-55
2021/02/24 21:55:27;;;;;;;0.50;0.50;;;;;;;11.71;53.93;98165.78;299395;231;63004;-55
2021/02/24 22:00:28;;;;;;;0.50;0.50;;;;;;;11.75;53.65;98166.88;299395;199;63023;-54
2021/02/24 22:05:29;;;;;;;0.50;0.50;;;;;;;11.78;53.55;98158.22;299395;237;63005;-55
2021/02/24 22:10:30;;;;;;;0.50;0.50;;;;;;;11.75;53.96;98161.44;299395;279;63009;-57
2021/02/24 22:15:31;;;;;;;0.50;0.50;;;;;;;11.65;54.11;98155.97;299395;196;63005;-55
2021/02/24 22:20:32;;;;;;;0.50;0.50;;;;;;;11.57;54.50;98153.75;299395;231;63009;-55
2021/02/24 22:25:33;;;;;;;0.50;0.50;;;;;;;11.57;54.79;98148.31;299395;207;63012;-57
2021/02/24 22:30:34;;;;;;;0.50;0.50;;;;;;;11.57;54.63;98148.31;299395;214;63009;-55
2021/02/24 22:35:35;;;;;;;0.50;0.50;;;;;;;11.62;54.18;98140.19;299395;209;63005;-55
2021/02/24 22:40:37;;;;;;;0.50;0.50;;;;;;;11.72;53.78;98140.22;299394;256;64009;-56
2021/02/24 22:45:38;;;;;;;0.50;0.50;;;;;;;11.71;53.91;98144.03;299395;205;63021;-54
2021/02/24 22:50:39;;;;;;;0.50;0.50;;;;;;;11.75;53.81;98140.50;299395;277;63009;-56
2021/02/24 22:55:40;;;;;;;0.50;0.50;;;;;;;11.68;53.97;98134.50;299395;197;63004;-55
2021/02/24 23:00:41;;;;;;;0.60;0.60;;;;;;;11.61;54.20;98142.09;299395;208;63009;-56
2021/02/24 23:05:41;;;;;;;0.50;0.50;;;;;;;11.54;54.48;98138.00;299395;263;63005;-55
2021/02/24 23:10:43;;;;;;;0.50;0.50;;;;;;;11.47;54.62;98137.44;299395;309;63009;-55
2021/02/24 23:15:44;;;;;;;0.50;0.50;;;;;;;11.47;54.21;98137.44;299395;260;63005;-55
2021/02/24 23:21:03;;;;;;;0.50;0.50;;;;;;;11.52;54.39;98140.16;299395;219;63009;-55
2021/02/24 23:26:09;;;;;;;0.50;0.50;;;;;;;11.49;54.20;98133.34;299395;285;63004;-55
2021/02/24 23:31:18;;;;;;;0.50;0.50;;;;;;;11.51;54.08;98142.06;299395;275;63009;-55
2021/02/24 23:36:23;;;;;;;0.50;0.50;;;;;;;11.54;53.51;98138.00;299395;255;63005;-56
2021/02/24 23:41:25;;;;;;;0.50;0.50;;;;;;;11.50;53.56;98131.44;299395;272;63008;-56
2021/02/24 23:46:27;;;;;;;0.50;0.50;;;;;;;11.52;53.34;98130.09;299395;223;63004;-55